sensor_id;sensor_type;location;lat;lon;timestamp;P1;durP1;ratioP1;P2;durP2;ratioP2
60006;SDS011;45863;50.336;3.536;2023-05-10T00:01:09;16.90;;;7.28;;
60006;SDS011;45863;50.336;3.536;2023-05-10T00:03:35;13.23;;;7.07;;
60006;SDS011;45863;50.336;3.536;2023-05-10T00:06:00;14.18;;;6.30;;
60006;SDS011;45863;50.336;3.536;2023-05-10T00:08:25;15.82;;;6.75;;
60006;SDS011;45863;50.336;3.536;2023-05-10T00:10:50;15.10;;;6.70;;
60006;SDS011;45863;50.336;3.536;2023-05-10T00:13:16;17.42;;;6.75;;
60006;SDS011;45863;50.336;3.536;2023-05-10T00:15:41;16.25;;;7.88;;
60006;SDS011;45863;50.336;3.536;2023-05-10T00:18:06;15.27;;;6.28;;
60006;SDS011;45863;50.336;3.536;2023-05-10T00:20:31;16.13;;;7.05;;
60006;SDS011;45863;50.336;3.536;2023-05-10T00:22:57;13.07;;;6.18;;
60006;SDS011;45863;50.336;3.536;2023-05-10T00:25:22;12.63;;;5.80;;
60006;SDS011;45863;50.336;3.536;2023-05-10T00:27:47;11.15;;;5.75;;
60006;SDS011;45863;50.336;3.536;2023-05-10T00:30:13;9.85;;;4.78;;
60006;SDS011;45863;50.336;3.536;2023-05-10T00:32:38;9.60;;;5.00;;
60006;SDS011;45863;50.336;3.536;2023-05-10T00:35:03;10.70;;;4.93;;
60006;SDS011;45863;50.336;3.536;2023-05-10T00:37:29;10.65;;;5.47;;
60006;SDS011;45863;50.336;3.536;2023-05-10T00:39:54;8.77;;;4.95;;
60006;SDS011;45863;50.336;3.536;2023-05-10T00:42:19;9.15;;;4.68;;
60006;SDS011;45863;50.336;3.536;2023-05-10T00:44:46;11.32;;;5.70;;
60006;SDS011;45863;50.336;3.536;2023-05-10T00:47:11;12.30;;;5.30;;
60006;SDS011;45863;50.336;3.536;2023-05-10T00:49:37;11.85;;;5.80;;
60006;SDS011;45863;50.336;3.536;2023-05-10T00:52:02;10.75;;;4.93;;
60006;SDS011;45863;50.336;3.536;2023-05-10T00:54:28;11.13;;;5.03;;
60006;SDS011;45863;50.336;3.536;2023-05-10T00:56:53;12.20;;;5.60;;
60006;SDS011;45863;50.336;3.536;2023-05-10T00:59:18;10.02;;;5.68;;
60006;SDS011;45863;50.336;3.536;2023-05-10T01:01:46;12.20;;;5.53;;
60006;SDS011;45863;50.336;3.536;2023-05-10T01:04:12;12.13;;;5.80;;
60006;SDS011;45863;50.336;3.536;2023-05-10T01:06:38;12.23;;;5.57;;
60006;SDS011;45863;50.336;3.536;2023-05-10T01:09:03;11.70;;;5.10;;
60006;SDS011;45863;50.336;3.536;2023-05-10T01:11:28;12.83;;;4.87;;
60006;SDS011;45863;50.336;3.536;2023-05-10T01:13:57;10.45;;;5.50;;
60006;SDS011;45863;50.336;3.536;2023-05-10T01:16:23;14.73;;;6.03;;
60006;SDS011;45863;50.336;3.536;2023-05-10T01:18:48;9.30;;;4.85;;
60006;SDS011;45863;50.336;3.536;2023-05-10T01:26:13;13.45;;;5.57;;
60006;SDS011;45863;50.336;3.536;2023-05-10T01:34:09;13.90;;;6.30;;
60006;SDS011;45863;50.336;3.536;2023-05-10T01:36:39;13.25;;;6.05;;
60006;SDS011;45863;50.336;3.536;2023-05-10T01:39:09;12.80;;;6.57;;
60006;SDS011;45863;50.336;3.536;2023-05-10T01:41:40;16.02;;;6.70;;
60006;SDS011;45863;50.336;3.536;2023-05-10T01:46:37;19.00;;;7.03;;
60006;SDS011;45863;50.336;3.536;2023-05-10T01:49:03;19.88;;;7.50;;
60006;SDS011;45863;50.336;3.536;2023-05-10T01:51:37;19.50;;;6.78;;
60006;SDS011;45863;50.336;3.536;2023-05-10T01:54:03;22.33;;;7.68;;
60006;SDS011;45863;50.336;3.536;2023-05-10T01:56:30;21.73;;;6.53;;
60006;SDS011;45863;50.336;3.536;2023-05-10T01:58:56;22.70;;;6.72;;
60006;SDS011;45863;50.336;3.536;2023-05-10T02:01:23;17.05;;;7.00;;
60006;SDS011;45863;50.336;3.536;2023-05-10T02:03:51;21.70;;;6.53;;
60006;SDS011;45863;50.336;3.536;2023-05-10T02:06:16;18.83;;;5.25;;
60006;SDS011;45863;50.336;3.536;2023-05-10T02:08:43;17.90;;;4.43;;
60006;SDS011;45863;50.336;3.536;2023-05-10T02:11:10;13.38;;;4.63;;
60006;SDS011;45863;50.336;3.536;2023-05-10T02:13:37;19.13;;;5.25;;
60006;SDS011;45863;50.336;3.536;2023-05-10T02:16:04;17.70;;;5.63;;
60006;SDS011;45863;50.336;3.536;2023-05-10T02:18:30;18.58;;;5.75;;
60006;SDS011;45863;50.336;3.536;2023-05-10T02:20:56;23.38;;;5.35;;
60006;SDS011;45863;50.336;3.536;2023-05-10T02:23:22;23.80;;;5.25;;
60006;SDS011;45863;50.336;3.536;2023-05-10T02:25:48;23.00;;;5.80;;
60006;SDS011;45863;50.336;3.536;2023-05-10T02:28:14;18.85;;;4.45;;
60006;SDS011;45863;50.336;3.536;2023-05-10T02:30:40;18.13;;;5.47;;
60006;SDS011;45863;50.336;3.536;2023-05-10T02:33:06;23.40;;;6.85;;
60006;SDS011;45863;50.336;3.536;2023-05-10T02:35:32;20.88;;;6.13;;
60006;SDS011;45863;50.336;3.536;2023-05-10T02:38:01;31.88;;;12.68;;
60006;SDS011;45863;50.336;3.536;2023-05-10T02:40:27;36.85;;;15.55;;
60006;SDS011;45863;50.336;3.536;2023-05-10T02:42:53;26.90;;;9.70;;
60006;SDS011;45863;50.336;3.536;2023-05-10T02:45:20;21.50;;;8.40;;
60006;SDS011;45863;50.336;3.536;2023-05-10T02:47:47;23.48;;;10.05;;
60006;SDS011;45863;50.336;3.536;2023-05-10T02:50:12;24.63;;;11.13;;
60006;SDS011;45863;50.336;3.536;2023-05-10T02:52:47;23.90;;;8.05;;
60006;SDS011;45863;50.336;3.536;2023-05-10T02:55:14;26.85;;;7.90;;
60006;SDS011;45863;50.336;3.536;2023-05-10T02:57:42;15.60;;;4.50;;
60006;SDS011;45863;50.336;3.536;2023-05-10T03:00:08;17.20;;;4.45;;
60006;SDS011;45863;50.336;3.536;2023-05-10T03:02:33;14.77;;;4.00;;
60006;SDS011;45863;50.336;3.536;2023-05-10T03:04:59;19.73;;;4.25;;
60006;SDS011;45863;50.336;3.536;2023-05-10T03:07:24;11.88;;;3.47;;
60006;SDS011;45863;50.336;3.536;2023-05-10T03:09:49;19.55;;;5.15;;
60006;SDS011;45863;50.336;3.536;2023-05-10T03:12:24;14.52;;;4.30;;
60006;SDS011;45863;50.336;3.536;2023-05-10T03:15:11;17.35;;;4.35;;
60006;SDS011;45863;50.336;3.536;2023-05-10T03:20:16;20.77;;;4.78;;
60006;SDS011;45863;50.336;3.536;2023-05-10T03:22:51;20.05;;;4.60;;
60006;SDS011;45863;50.336;3.536;2023-05-10T03:25:18;13.30;;;4.32;;
60006;SDS011;45863;50.336;3.536;2023-05-10T03:27:43;28.83;;;10.13;;
60006;SDS011;45863;50.336;3.536;2023-05-10T03:30:10;38.67;;;18.35;;
60006;SDS011;45863;50.336;3.536;2023-05-10T03:32:36;33.25;;;14.98;;
60006;SDS011;45863;50.336;3.536;2023-05-10T03:35:08;38.03;;;16.10;;
60006;SDS011;45863;50.336;3.536;2023-05-10T03:37:34;27.40;;;10.45;;
60006;SDS011;45863;50.336;3.536;2023-05-10T03:39:59;21.02;;;6.50;;
60006;SDS011;45863;50.336;3.536;2023-05-10T03:42:25;20.45;;;5.55;;
60006;SDS011;45863;50.336;3.536;2023-05-10T03:44:50;20.13;;;6.10;;
60006;SDS011;45863;50.336;3.536;2023-05-10T03:47:15;22.95;;;6.45;;
60006;SDS011;45863;50.336;3.536;2023-05-10T03:49:40;16.95;;;5.25;;
60006;SDS011;45863;50.336;3.536;2023-05-10T03:52:05;22.55;;;5.20;;
60006;SDS011;45863;50.336;3.536;2023-05-10T03:54:31;10.02;;;4.32;;
60006;SDS011;45863;50.336;3.536;2023-05-10T03:56:57;15.45;;;5.93;;
60006;SDS011;45863;50.336;3.536;2023-05-10T03:59:22;21.77;;;4.90;;
60006;SDS011;45863;50.336;3.536;2023-05-10T04:01:47;24.30;;;6.38;;
60006;SDS011;45863;50.336;3.536;2023-05-10T04:04:12;20.23;;;5.85;;
60006;SDS011;45863;50.336;3.536;2023-05-10T04:06:38;13.82;;;4.70;;
60006;SDS011;45863;50.336;3.536;2023-05-10T04:09:03;15.15;;;5.38;;
60006;SDS011;45863;50.336;3.536;2023-05-10T04:11:29;20.63;;;6.50;;
60006;SDS011;45863;50.336;3.536;2023-05-10T04:13:54;19.08;;;5.75;;
60006;SDS011;45863;50.336;3.536;2023-05-10T04:16:19;22.53;;;5.50;;
60006;SDS011;45863;50.336;3.536;2023-05-10T04:18:44;17.48;;;5.20;;
60006;SDS011;45863;50.336;3.536;2023-05-10T04:21:13;22.20;;;5.40;;
60006;SDS011;45863;50.336;3.536;2023-05-10T04:23:38;22.33;;;7.28;;
60006;SDS011;45863;50.336;3.536;2023-05-10T04:26:03;18.63;;;5.68;;
60006;SDS011;45863;50.336;3.536;2023-05-10T04:28:29;17.10;;;5.18;;
60006;SDS011;45863;50.336;3.536;2023-05-10T04:31:00;15.65;;;5.43;;
60006;SDS011;45863;50.336;3.536;2023-05-10T04:33:25;22.17;;;6.05;;
60006;SDS011;45863;50.336;3.536;2023-05-10T04:35:50;15.73;;;6.55;;
60006;SDS011;45863;50.336;3.536;2023-05-10T04:38:16;14.77;;;5.70;;
60006;SDS011;45863;50.336;3.536;2023-05-10T04:40:41;15.82;;;5.60;;
60006;SDS011;45863;50.336;3.536;2023-05-10T04:43:06;27.52;;;6.10;;
60006;SDS011;45863;50.336;3.536;2023-05-10T04:45:31;18.93;;;6.60;;
60006;SDS011;45863;50.336;3.536;2023-05-10T04:47:56;18.45;;;6.20;;
60006;SDS011;45863;50.336;3.536;2023-05-10T04:50:22;19.00;;;6.30;;
60006;SDS011;45863;50.336;3.536;2023-05-10T04:52:47;23.73;;;7.72;;
60006;SDS011;45863;50.336;3.536;2023-05-10T04:55:12;20.27;;;7.00;;
60006;SDS011;45863;50.336;3.536;2023-05-10T04:57:38;13.48;;;6.82;;
60006;SDS011;45863;50.336;3.536;2023-05-10T05:00:03;22.20;;;6.50;;
60006;SDS011;45863;50.336;3.536;2023-05-10T05:02:29;19.73;;;6.22;;
60006;SDS011;45863;50.336;3.536;2023-05-10T05:04:55;12.88;;;5.57;;
60006;SDS011;45863;50.336;3.536;2023-05-10T05:07:20;16.15;;;6.05;;
60006;SDS011;45863;50.336;3.536;2023-05-10T05:09:46;18.20;;;6.43;;
60006;SDS011;45863;50.336;3.536;2023-05-10T05:12:11;15.23;;;5.72;;
60006;SDS011;45863;50.336;3.536;2023-05-10T05:14:39;15.93;;;5.32;;
60006;SDS011;45863;50.336;3.536;2023-05-10T05:17:04;18.88;;;5.88;;
60006;SDS011;45863;50.336;3.536;2023-05-10T05:19:30;17.02;;;5.53;;
60006;SDS011;45863;50.336;3.536;2023-05-10T05:21:56;17.58;;;5.22;;
60006;SDS011;45863;50.336;3.536;2023-05-10T05:24:21;20.58;;;5.13;;
60006;SDS011;45863;50.336;3.536;2023-05-10T05:26:46;18.23;;;4.88;;
60006;SDS011;45863;50.336;3.536;2023-05-10T05:29:12;15.07;;;5.50;;
60006;SDS011;45863;50.336;3.536;2023-05-10T05:31:37;16.98;;;6.05;;
60006;SDS011;45863;50.336;3.536;2023-05-10T05:34:02;14.40;;;5.07;;
60006;SDS011;45863;50.336;3.536;2023-05-10T05:36:27;14.88;;;6.13;;
60006;SDS011;45863;50.336;3.536;2023-05-10T05:38:53;15.93;;;5.32;;
60006;SDS011;45863;50.336;3.536;2023-05-10T05:41:18;13.60;;;4.80;;
60006;SDS011;45863;50.336;3.536;2023-05-10T05:43:43;14.43;;;5.25;;
60006;SDS011;45863;50.336;3.536;2023-05-10T05:46:08;18.13;;;5.15;;
60006;SDS011;45863;50.336;3.536;2023-05-10T05:48:33;10.55;;;4.30;;
60006;SDS011;45863;50.336;3.536;2023-05-10T05:50:59;15.80;;;4.80;;
60006;SDS011;45863;50.336;3.536;2023-05-10T05:53:24;14.77;;;4.60;;
60006;SDS011;45863;50.336;3.536;2023-05-10T05:58:18;17.70;;;5.15;;
60006;SDS011;45863;50.336;3.536;2023-05-10T06:00:43;13.43;;;4.13;;
60006;SDS011;45863;50.336;3.536;2023-05-10T06:03:08;10.52;;;5.35;;
60006;SDS011;45863;50.336;3.536;2023-05-10T06:05:34;12.27;;;5.07;;
60006;SDS011;45863;50.336;3.536;2023-05-10T06:07:59;13.43;;;5.22;;
60006;SDS011;45863;50.336;3.536;2023-05-10T06:10:25;12.43;;;4.70;;
60006;SDS011;45863;50.336;3.536;2023-05-10T06:12:50;11.52;;;4.20;;
60006;SDS011;45863;50.336;3.536;2023-05-10T06:15:15;14.02;;;4.60;;
60006;SDS011;45863;50.336;3.536;2023-05-10T06:17:41;14.05;;;4.35;;
60006;SDS011;45863;50.336;3.536;2023-05-10T06:20:08;19.33;;;4.47;;
60006;SDS011;45863;50.336;3.536;2023-05-10T06:22:33;11.70;;;4.30;;
60006;SDS011;45863;50.336;3.536;2023-05-10T06:24:59;11.77;;;3.85;;
60006;SDS011;45863;50.336;3.536;2023-05-10T06:27:24;10.80;;;4.40;;
60006;SDS011;45863;50.336;3.536;2023-05-10T06:29:49;15.00;;;3.72;;
60006;SDS011;45863;50.336;3.536;2023-05-10T06:32:14;15.23;;;4.38;;
60006;SDS011;45863;50.336;3.536;2023-05-10T06:34:39;12.00;;;4.47;;
60006;SDS011;45863;50.336;3.536;2023-05-10T06:37:05;13.88;;;4.28;;
60006;SDS011;45863;50.336;3.536;2023-05-10T06:39:30;15.23;;;4.68;;
60006;SDS011;45863;50.336;3.536;2023-05-10T06:41:55;19.23;;;5.15;;
60006;SDS011;45863;50.336;3.536;2023-05-10T06:44:20;14.13;;;4.72;;
60006;SDS011;45863;50.336;3.536;2023-05-10T06:46:46;15.82;;;4.40;;
60006;SDS011;45863;50.336;3.536;2023-05-10T06:49:11;14.85;;;4.93;;
60006;SDS011;45863;50.336;3.536;2023-05-10T06:51:37;12.47;;;4.67;;
60006;SDS011;45863;50.336;3.536;2023-05-10T06:54:02;19.30;;;4.90;;
60006;SDS011;45863;50.336;3.536;2023-05-10T06:56:28;14.48;;;4.97;;
60006;SDS011;45863;50.336;3.536;2023-05-10T06:58:53;7.68;;;4.18;;
60006;SDS011;45863;50.336;3.536;2023-05-10T07:01:18;13.23;;;4.57;;
60006;SDS011;45863;50.336;3.536;2023-05-10T07:03:43;14.07;;;4.78;;
60006;SDS011;45863;50.336;3.536;2023-05-10T07:06:09;13.00;;;4.55;;
60006;SDS011;45863;50.336;3.536;2023-05-10T07:08:34;12.90;;;5.22;;
60006;SDS011;45863;50.336;3.536;2023-05-10T07:11:00;16.50;;;5.25;;
60006;SDS011;45863;50.336;3.536;2023-05-10T07:13:25;11.55;;;5.50;;
60006;SDS011;45863;50.336;3.536;2023-05-10T07:15:51;11.98;;;5.25;;
60006;SDS011;45863;50.336;3.536;2023-05-10T07:18:16;13.95;;;4.55;;
60006;SDS011;45863;50.336;3.536;2023-05-10T07:20:41;15.23;;;5.00;;
60006;SDS011;45863;50.336;3.536;2023-05-10T07:23:06;17.50;;;5.43;;
60006;SDS011;45863;50.336;3.536;2023-05-10T07:25:31;13.32;;;5.38;;
60006;SDS011;45863;50.336;3.536;2023-05-10T07:27:57;16.85;;;5.63;;
60006;SDS011;45863;50.336;3.536;2023-05-10T07:30:22;14.35;;;6.13;;
60006;SDS011;45863;50.336;3.536;2023-05-10T07:32:47;15.10;;;6.10;;
60006;SDS011;45863;50.336;3.536;2023-05-10T07:35:12;14.95;;;6.05;;
60006;SDS011;45863;50.336;3.536;2023-05-10T07:37:38;17.15;;;7.85;;
60006;SDS011;45863;50.336;3.536;2023-05-10T07:40:03;19.85;;;7.30;;
60006;SDS011;45863;50.336;3.536;2023-05-10T07:42:28;19.83;;;8.55;;
60006;SDS011;45863;50.336;3.536;2023-05-10T07:44:53;12.93;;;7.07;;
60006;SDS011;45863;50.336;3.536;2023-05-10T07:47:19;18.15;;;7.13;;
60006;SDS011;45863;50.336;3.536;2023-05-10T07:49:44;14.13;;;7.22;;
60006;SDS011;45863;50.336;3.536;2023-05-10T07:52:09;13.10;;;7.05;;
60006;SDS011;45863;50.336;3.536;2023-05-10T07:54:34;19.37;;;8.50;;
60006;SDS011;45863;50.336;3.536;2023-05-10T07:57:00;16.58;;;8.82;;
60006;SDS011;45863;50.336;3.536;2023-05-10T07:59:25;13.60;;;7.85;;
60006;SDS011;45863;50.336;3.536;2023-05-10T08:01:50;16.07;;;8.70;;
60006;SDS011;45863;50.336;3.536;2023-05-10T08:04:15;24.52;;;9.70;;
60006;SDS011;45863;50.336;3.536;2023-05-10T08:06:41;16.07;;;8.97;;
60006;SDS011;45863;50.336;3.536;2023-05-10T08:09:06;20.55;;;9.85;;
60006;SDS011;45863;50.336;3.536;2023-05-10T08:11:31;17.92;;;10.02;;
60006;SDS011;45863;50.336;3.536;2023-05-10T08:13:56;16.45;;;8.30;;
60006;SDS011;45863;50.336;3.536;2023-05-10T08:16:22;17.85;;;9.43;;
60006;SDS011;45863;50.336;3.536;2023-05-10T08:18:47;18.63;;;9.35;;
60006;SDS011;45863;50.336;3.536;2023-05-10T08:21:12;21.38;;;9.98;;
60006;SDS011;45863;50.336;3.536;2023-05-10T08:23:38;16.13;;;8.80;;
60006;SDS011;45863;50.336;3.536;2023-05-10T08:26:03;19.75;;;9.82;;
60006;SDS011;45863;50.336;3.536;2023-05-10T08:28:29;17.45;;;9.00;;
60006;SDS011;45863;50.336;3.536;2023-05-10T08:30:54;17.30;;;9.50;;
60006;SDS011;45863;50.336;3.536;2023-05-10T08:33:19;18.10;;;9.50;;
60006;SDS011;45863;50.336;3.536;2023-05-10T08:35:45;17.00;;;9.68;;
60006;SDS011;45863;50.336;3.536;2023-05-10T08:38:10;23.33;;;10.25;;
60006;SDS011;45863;50.336;3.536;2023-05-10T08:40:36;16.10;;;9.60;;
60006;SDS011;45863;50.336;3.536;2023-05-10T08:43:04;16.98;;;9.25;;
60006;SDS011;45863;50.336;3.536;2023-05-10T08:45:32;19.05;;;10.52;;
60006;SDS011;45863;50.336;3.536;2023-05-10T08:47:57;19.58;;;9.70;;
60006;SDS011;45863;50.336;3.536;2023-05-10T08:50:24;17.98;;;9.85;;
60006;SDS011;45863;50.336;3.536;2023-05-10T08:52:50;19.27;;;10.05;;
60006;SDS011;45863;50.336;3.536;2023-05-10T08:55:17;19.27;;;9.73;;
60006;SDS011;45863;50.336;3.536;2023-05-10T08:57:43;19.65;;;8.40;;
60006;SDS011;45863;50.336;3.536;2023-05-10T09:00:08;16.42;;;9.20;;
60006;SDS011;45863;50.336;3.536;2023-05-10T09:02:34;15.05;;;9.10;;
60006;SDS011;45863;50.336;3.536;2023-05-10T09:05:00;14.43;;;8.65;;
60006;SDS011;45863;50.336;3.536;2023-05-10T09:07:26;13.00;;;7.47;;
60006;SDS011;45863;50.336;3.536;2023-05-10T09:09:51;17.58;;;8.65;;
60006;SDS011;45863;50.336;3.536;2023-05-10T09:12:17;16.67;;;7.75;;
60006;SDS011;45863;50.336;3.536;2023-05-10T09:14:42;15.48;;;7.60;;
60006;SDS011;45863;50.336;3.536;2023-05-10T09:17:09;12.10;;;7.60;;
60006;SDS011;45863;50.336;3.536;2023-05-10T09:19:34;14.80;;;7.75;;
60006;SDS011;45863;50.336;3.536;2023-05-10T09:21:59;10.63;;;6.53;;
60006;SDS011;45863;50.336;3.536;2023-05-10T09:24:29;8.45;;;5.57;;
60006;SDS011;45863;50.336;3.536;2023-05-10T09:26:54;12.00;;;6.20;;
60006;SDS011;45863;50.336;3.536;2023-05-10T09:29:21;11.23;;;6.70;;
60006;SDS011;45863;50.336;3.536;2023-05-10T09:31:47;10.90;;;5.85;;
60006;SDS011;45863;50.336;3.536;2023-05-10T09:34:19;10.80;;;6.85;;
60006;SDS011;45863;50.336;3.536;2023-05-10T09:36:50;11.02;;;6.13;;
60006;SDS011;45863;50.336;3.536;2023-05-10T09:39:15;9.50;;;5.55;;
60006;SDS011;45863;50.336;3.536;2023-05-10T09:41:41;10.23;;;5.07;;
60006;SDS011;45863;50.336;3.536;2023-05-10T09:44:07;11.88;;;6.15;;
60006;SDS011;45863;50.336;3.536;2023-05-10T09:46:34;9.63;;;5.38;;
60006;SDS011;45863;50.336;3.536;2023-05-10T09:49:00;10.32;;;4.80;;
60006;SDS011;45863;50.336;3.536;2023-05-10T09:51:26;10.07;;;5.25;;
60006;SDS011;45863;50.336;3.536;2023-05-10T09:56:36;8.35;;;5.50;;
60006;SDS011;45863;50.336;3.536;2023-05-10T09:59:03;9.55;;;5.38;;
60006;SDS011;45863;50.336;3.536;2023-05-10T10:01:29;11.25;;;5.82;;
60006;SDS011;45863;50.336;3.536;2023-05-10T10:03:55;10.18;;;5.43;;
60006;SDS011;45863;50.336;3.536;2023-05-10T10:06:22;10.65;;;5.10;;
60006;SDS011;45863;50.336;3.536;2023-05-10T10:08:48;8.73;;;5.72;;
60006;SDS011;45863;50.336;3.536;2023-05-10T10:11:13;10.63;;;5.50;;
60006;SDS011;45863;50.336;3.536;2023-05-10T10:13:38;7.95;;;4.80;;
60006;SDS011;45863;50.336;3.536;2023-05-10T10:16:04;8.07;;;4.85;;
60006;SDS011;45863;50.336;3.536;2023-05-10T10:18:30;8.00;;;4.55;;
60006;SDS011;45863;50.336;3.536;2023-05-10T10:20:56;8.40;;;4.78;;
60006;SDS011;45863;50.336;3.536;2023-05-10T10:23:21;10.38;;;5.85;;
60006;SDS011;45863;50.336;3.536;2023-05-10T10:25:46;12.27;;;5.20;;
60006;SDS011;45863;50.336;3.536;2023-05-10T10:30:47;7.93;;;4.88;;
60006;SDS011;45863;50.336;3.536;2023-05-10T10:35:38;8.77;;;5.55;;
60006;SDS011;45863;50.336;3.536;2023-05-10T10:38:04;8.82;;;4.97;;
60006;SDS011;45863;50.336;3.536;2023-05-10T10:40:33;9.85;;;5.78;;
60006;SDS011;45863;50.336;3.536;2023-05-10T10:43:20;10.95;;;5.53;;
60006;SDS011;45863;50.336;3.536;2023-05-10T10:45:43;9.95;;;5.03;;
60006;SDS011;45863;50.336;3.536;2023-05-10T10:48:22;9.40;;;5.90;;
60006;SDS011;45863;50.336;3.536;2023-05-10T10:50:47;7.60;;;4.65;;
60006;SDS011;45863;50.336;3.536;2023-05-10T10:53:12;9.25;;;6.20;;
60006;SDS011;45863;50.336;3.536;2023-05-10T10:55:47;12.10;;;6.85;;
60006;SDS011;45863;50.336;3.536;2023-05-10T10:58:28;11.82;;;5.82;;
60006;SDS011;45863;50.336;3.536;2023-05-10T11:00:53;10.77;;;5.90;;
60006;SDS011;45863;50.336;3.536;2023-05-10T11:03:33;11.80;;;6.60;;
60006;SDS011;45863;50.336;3.536;2023-05-10T11:05:58;10.05;;;6.40;;
60006;SDS011;45863;50.336;3.536;2023-05-10T11:08:30;12.05;;;7.30;;
60006;SDS011;45863;50.336;3.536;2023-05-10T11:13:45;13.88;;;6.53;;
60006;SDS011;45863;50.336;3.536;2023-05-10T11:16:16;14.40;;;6.22;;
60006;SDS011;45863;50.336;3.536;2023-05-10T11:21:19;11.60;;;6.65;;
60006;SDS011;45863;50.336;3.536;2023-05-10T11:23:55;12.93;;;7.70;;
60006;SDS011;45863;50.336;3.536;2023-05-10T11:26:30;14.80;;;7.90;;
60006;SDS011;45863;50.336;3.536;2023-05-10T11:28:55;12.73;;;7.75;;
60006;SDS011;45863;50.336;3.536;2023-05-10T11:31:21;18.25;;;9.90;;
60006;SDS011;45863;50.336;3.536;2023-05-10T11:36:13;15.00;;;8.90;;
60006;SDS011;45863;50.336;3.536;2023-05-10T11:38:39;16.10;;;8.15;;
60006;SDS011;45863;50.336;3.536;2023-05-10T11:41:04;14.02;;;8.60;;
60006;SDS011;45863;50.336;3.536;2023-05-10T11:43:29;14.55;;;8.18;;
60006;SDS011;45863;50.336;3.536;2023-05-10T11:45:55;16.95;;;9.63;;
60006;SDS011;45863;50.336;3.536;2023-05-10T11:48:21;15.30;;;8.35;;
60006;SDS011;45863;50.336;3.536;2023-05-10T11:50:48;16.92;;;9.32;;
60006;SDS011;45863;50.336;3.536;2023-05-10T11:53:14;14.65;;;8.63;;
60006;SDS011;45863;50.336;3.536;2023-05-10T11:55:39;15.45;;;8.30;;
60006;SDS011;45863;50.336;3.536;2023-05-10T11:58:04;15.15;;;8.75;;
60006;SDS011;45863;50.336;3.536;2023-05-10T12:00:30;15.70;;;7.30;;
60006;SDS011;45863;50.336;3.536;2023-05-10T12:02:56;15.23;;;8.05;;
60006;SDS011;45863;50.336;3.536;2023-05-10T12:05:21;12.80;;;8.55;;
60006;SDS011;45863;50.336;3.536;2023-05-10T12:07:46;11.50;;;7.80;;
60006;SDS011;45863;50.336;3.536;2023-05-10T12:10:12;13.82;;;8.27;;
60006;SDS011;45863;50.336;3.536;2023-05-10T12:12:45;15.50;;;9.13;;
60006;SDS011;45863;50.336;3.536;2023-05-10T12:15:22;12.47;;;8.23;;
60006;SDS011;45863;50.336;3.536;2023-05-10T12:17:48;17.38;;;9.23;;
60006;SDS011;45863;50.336;3.536;2023-05-10T12:22:39;14.70;;;8.73;;
60006;SDS011;45863;50.336;3.536;2023-05-10T12:25:05;14.68;;;7.65;;
60006;SDS011;45863;50.336;3.536;2023-05-10T12:27:31;13.32;;;7.18;;
60006;SDS011;45863;50.336;3.536;2023-05-10T12:29:58;16.58;;;7.85;;
60006;SDS011;45863;50.336;3.536;2023-05-10T12:32:36;14.68;;;7.75;;
60006;SDS011;45863;50.336;3.536;2023-05-10T12:35:05;14.10;;;8.38;;
60006;SDS011;45863;50.336;3.536;2023-05-10T12:37:30;14.63;;;7.75;;
60006;SDS011;45863;50.336;3.536;2023-05-10T12:39:55;15.93;;;7.88;;
60006;SDS011;45863;50.336;3.536;2023-05-10T12:42:21;14.77;;;7.93;;
60006;SDS011;45863;50.336;3.536;2023-05-10T12:44:46;12.70;;;8.50;;
60006;SDS011;45863;50.336;3.536;2023-05-10T12:47:11;12.23;;;7.72;;
60006;SDS011;45863;50.336;3.536;2023-05-10T12:49:36;14.73;;;6.70;;
60006;SDS011;45863;50.336;3.536;2023-05-10T12:52:02;11.20;;;8.10;;
60006;SDS011;45863;50.336;3.536;2023-05-10T12:54:27;13.95;;;7.82;;
60006;SDS011;45863;50.336;3.536;2023-05-10T12:56:52;15.18;;;7.70;;
60006;SDS011;45863;50.336;3.536;2023-05-10T12:59:18;16.92;;;8.18;;
60006;SDS011;45863;50.336;3.536;2023-05-10T13:01:43;13.77;;;7.00;;
60006;SDS011;45863;50.336;3.536;2023-05-10T13:04:08;13.63;;;8.48;;
60006;SDS011;45863;50.336;3.536;2023-05-10T13:06:33;14.97;;;8.20;;
60006;SDS011;45863;50.336;3.536;2023-05-10T13:09:00;12.82;;;6.68;;
60006;SDS011;45863;50.336;3.536;2023-05-10T13:11:25;10.52;;;4.88;;
60006;SDS011;45863;50.336;3.536;2023-05-10T13:13:51;15.43;;;9.55;;
60006;SDS011;45863;50.336;3.536;2023-05-10T13:16:16;10.85;;;6.15;;
60006;SDS011;45863;50.336;3.536;2023-05-10T13:18:42;14.10;;;6.03;;
60006;SDS011;45863;50.336;3.536;2023-05-10T13:21:08;11.25;;;5.03;;
60006;SDS011;45863;50.336;3.536;2023-05-10T13:23:34;11.10;;;4.82;;
60006;SDS011;45863;50.336;3.536;2023-05-10T13:25:59;15.88;;;5.53;;
60006;SDS011;45863;50.336;3.536;2023-05-10T13:28:24;12.57;;;7.03;;
60006;SDS011;45863;50.336;3.536;2023-05-10T13:30:51;14.65;;;6.78;;
60006;SDS011;45863;50.336;3.536;2023-05-10T13:33:16;12.73;;;5.53;;
60006;SDS011;45863;50.336;3.536;2023-05-10T13:35:41;10.93;;;5.63;;
60006;SDS011;45863;50.336;3.536;2023-05-10T13:38:07;10.82;;;5.55;;
60006;SDS011;45863;50.336;3.536;2023-05-10T13:40:32;12.82;;;5.53;;
60006;SDS011;45863;50.336;3.536;2023-05-10T13:42:58;10.82;;;5.22;;
60006;SDS011;45863;50.336;3.536;2023-05-10T13:45:23;16.52;;;7.78;;
60006;SDS011;45863;50.336;3.536;2023-05-10T13:47:48;14.95;;;8.35;;
60006;SDS011;45863;50.336;3.536;2023-05-10T13:50:13;16.95;;;7.80;;
60006;SDS011;45863;50.336;3.536;2023-05-10T13:52:39;14.75;;;8.02;;
60006;SDS011;45863;50.336;3.536;2023-05-10T13:55:04;15.48;;;7.88;;
60006;SDS011;45863;50.336;3.536;2023-05-10T13:57:29;16.55;;;8.18;;
60006;SDS011;45863;50.336;3.536;2023-05-10T13:59:55;12.00;;;6.05;;
60006;SDS011;45863;50.336;3.536;2023-05-10T14:02:22;14.50;;;7.13;;
60006;SDS011;45863;50.336;3.536;2023-05-10T14:04:47;12.75;;;6.53;;
60006;SDS011;45863;50.336;3.536;2023-05-10T14:07:13;17.48;;;7.63;;
60006;SDS011;45863;50.336;3.536;2023-05-10T14:09:38;15.40;;;7.32;;
60006;SDS011;45863;50.336;3.536;2023-05-10T14:12:04;13.68;;;6.53;;
60006;SDS011;45863;50.336;3.536;2023-05-10T14:14:29;15.73;;;7.13;;
60006;SDS011;45863;50.336;3.536;2023-05-10T14:16:54;15.85;;;6.97;;
60006;SDS011;45863;50.336;3.536;2023-05-10T14:19:19;14.75;;;7.72;;
60006;SDS011;45863;50.336;3.536;2023-05-10T14:21:45;13.15;;;6.22;;
60006;SDS011;45863;50.336;3.536;2023-05-10T14:24:10;13.05;;;6.35;;
60006;SDS011;45863;50.336;3.536;2023-05-10T14:26:35;15.88;;;7.03;;
60006;SDS011;45863;50.336;3.536;2023-05-10T14:29:01;12.88;;;6.32;;
60006;SDS011;45863;50.336;3.536;2023-05-10T14:31:26;13.32;;;5.03;;
60006;SDS011;45863;50.336;3.536;2023-05-10T14:33:52;13.50;;;5.22;;
60006;SDS011;45863;50.336;3.536;2023-05-10T14:36:18;12.45;;;5.10;;
60006;SDS011;45863;50.336;3.536;2023-05-10T14:38:43;12.57;;;3.92;;
60006;SDS011;45863;50.336;3.536;2023-05-10T14:41:08;9.43;;;3.90;;
60006;SDS011;45863;50.336;3.536;2023-05-10T14:43:33;9.73;;;3.63;;
60006;SDS011;45863;50.336;3.536;2023-05-10T14:45:59;8.82;;;4.00;;
60006;SDS011;45863;50.336;3.536;2023-05-10T14:48:24;13.48;;;3.75;;
60006;SDS011;45863;50.336;3.536;2023-05-10T14:50:49;17.83;;;4.57;;
60006;SDS011;45863;50.336;3.536;2023-05-10T14:53:15;11.45;;;4.45;;
60006;SDS011;45863;50.336;3.536;2023-05-10T14:55:40;13.20;;;4.45;;
60006;SDS011;45863;50.336;3.536;2023-05-10T14:58:05;9.35;;;4.32;;
60006;SDS011;45863;50.336;3.536;2023-05-10T15:00:31;10.55;;;4.18;;
60006;SDS011;45863;50.336;3.536;2023-05-10T15:02:56;14.27;;;4.60;;
60006;SDS011;45863;50.336;3.536;2023-05-10T15:05:22;9.85;;;4.68;;